sensor_id;sensor_type;location;lat;lon;timestamp;pressure;altitude;pressure_sealevel;temperature;humidity
48035;BME280;33812;46.480;6.834;2022-11-13T00:02:41;94457.63;;;20.46;41.72
48035;BME280;33812;46.480;6.834;2022-11-13T00:06:43;94451.75;;;20.44;41.54
48035;BME280;33812;46.480;6.834;2022-11-13T00:10:44;94451.41;;;20.41;41.52
48035;BME280;33812;46.480;6.834;2022-11-13T00:14:46;94446.16;;;20.47;41.63
48035;BME280;33812;46.480;6.834;2022-11-13T00:18:49;94444.63;;;20.46;41.51
48035;BME280;33812;46.480;6.834;2022-11-13T00:22:51;94439.84;;;20.50;41.36
48035;BME280;33812;46.480;6.834;2022-11-13T00:26:53;94435.97;;;20.44;41.46
48035;BME280;33812;46.480;6.834;2022-11-13T00:30:57;94426.91;;;20.44;41.72
48035;BME280;33812;46.480;6.834;2022-11-13T00:35:01;94419.41;;;20.44;41.76
48035;BME280;33812;46.480;6.834;2022-11-13T00:39:03;94419.81;;;20.42;41.66
48035;BME280;33812;46.480;6.834;2022-11-13T00:43:04;94419.41;;;20.44;41.68
48035;BME280;33812;46.480;6.834;2022-11-13T00:47:06;94415.78;;;20.47;41.90
48035;BME280;33812;46.480;6.834;2022-11-13T00:51:09;94411.59;;;20.39;41.72
48035;BME280;33812;46.480;6.834;2022-11-13T00:55:11;94414.81;;;20.34;41.64
48035;BME280;33812;46.480;6.834;2022-11-13T00:59:12;94416.31;;;20.38;41.84
48035;BME280;33812;46.480;6.834;2022-11-13T01:03:16;94406.91;;;20.36;41.98
48035;BME280;33812;46.480;6.834;2022-11-13T01:07:19;94401.97;;;20.23;42.07
48035;BME280;33812;46.480;6.834;2022-11-13T01:11:24;94399.19;;;20.23;41.91
48035;BME280;33812;46.480;6.834;2022-11-13T01:15:26;94384.56;;;19.95;42.54
48035;BME280;33812;46.480;6.834;2022-11-13T01:19:28;94386.09;;;20.00;42.08
48035;BME280;33812;46.480;6.834;2022-11-13T01:23:31;94383.19;;;20.11;42.11
48035;BME280;33812;46.480;6.834;2022-11-13T01:27:34;94391.03;;;19.85;42.42
48035;BME280;33812;46.480;6.834;2022-11-13T01:31:36;94387.19;;;20.10;42.28
48035;BME280;33812;46.480;6.834;2022-11-13T01:35:38;94385.72;;;20.29;42.04
48035;BME280;33812;46.480;6.834;2022-11-13T01:39:41;94378.94;;;20.34;42.05
48035;BME280;33812;46.480;6.834;2022-11-13T01:43:43;94374.63;;;20.33;41.69
48035;BME280;33812;46.480;6.834;2022-11-13T01:47:45;94366.91;;;20.20;41.91
48035;BME280;33812;46.480;6.834;2022-11-13T01:51:49;94357.00;;;19.95;41.79
48035;BME280;33812;46.480;6.834;2022-11-13T01:55:53;94361.19;;;20.03;42.18
48035;BME280;33812;46.480;6.834;2022-11-13T01:59:57;94344.94;;;20.13;41.88
48035;BME280;33812;46.480;6.834;2022-11-13T02:04:01;94344.38;;;20.25;41.59
48035;BME280;33812;46.480;6.834;2022-11-13T02:08:03;94343.34;;;20.15;41.24
48035;BME280;33812;46.480;6.834;2022-11-13T02:12:12;94337.78;;;20.19;41.41
48035;BME280;33812;46.480;6.834;2022-11-13T02:16:15;94328.66;;;20.22;41.32
48035;BME280;33812;46.480;6.834;2022-11-13T02:20:22;94329.41;;;20.23;41.28
48035;BME280;33812;46.480;6.834;2022-11-13T02:24:30;94327.84;;;20.22;41.30
48035;BME280;33812;46.480;6.834;2022-11-13T02:28:33;94322.75;;;20.20;41.38
48035;BME280;33812;46.480;6.834;2022-11-13T02:32:41;94319.16;;;20.23;40.85
48035;BME280;33812;46.480;6.834;2022-11-13T02:36:43;94315.56;;;20.26;41.31
48035;BME280;33812;46.480;6.834;2022-11-13T02:40:46;94312.56;;;20.17;40.90
48035;BME280;33812;46.480;6.834;2022-11-13T02:44:48;94308.22;;;20.16;41.03
48035;BME280;33812;46.480;6.834;2022-11-13T02:48:49;94293.25;;;20.17;40.98
48035;BME280;33812;46.480;6.834;2022-11-13T02:52:51;94292.97;;;20.08;40.86
48035;BME280;33812;46.480;6.834;2022-11-13T02:56:54;94305.09;;;20.14;40.89
48035;BME280;33812;46.480;6.834;2022-11-13T03:00:56;94300.78;;;20.13;41.09
48035;BME280;33812;46.480;6.834;2022-11-13T03:04:59;94300.84;;;20.09;40.95
48035;BME280;33812;46.480;6.834;2022-11-13T03:09:00;94300.06;;;20.09;41.09
48035;BME280;33812;46.480;6.834;2022-11-13T03:13:04;94294.44;;;20.16;40.99
48035;BME280;33812;46.480;6.834;2022-11-13T03:17:05;94287.34;;;20.15;40.96
48035;BME280;33812;46.480;6.834;2022-11-13T03:21:09;94283.75;;;20.18;40.83
48035;BME280;33812;46.480;6.834;2022-11-13T03:25:11;94282.09;;;20.24;40.93
48035;BME280;33812;46.480;6.834;2022-11-13T03:29:14;94285.50;;;20.08;40.87
48035;BME280;33812;46.480;6.834;2022-11-13T03:33:17;94268.09;;;20.11;40.97
48035;BME280;33812;46.480;6.834;2022-11-13T03:37:18;94279.06;;;20.15;41.00
48035;BME280;33812;46.480;6.834;2022-11-13T03:41:21;94273.44;;;20.22;40.72
48035;BME280;33812;46.480;6.834;2022-11-13T03:45:28;94273.88;;;20.21;41.10
48035;BME280;33812;46.480;6.834;2022-11-13T03:49:30;94266.34;;;20.21;41.04
48035;BME280;33812;46.480;6.834;2022-11-13T03:53:32;94264.56;;;20.11;41.15
48035;BME280;33812;46.480;6.834;2022-11-13T03:57:34;94259.72;;;20.19;40.76
48035;BME280;33812;46.480;6.834;2022-11-13T04:01:37;94243.63;;;20.13;40.88
48035;BME280;33812;46.480;6.834;2022-11-13T04:05:41;94241.88;;;20.23;40.83
48035;BME280;33812;46.480;6.834;2022-11-13T04:09:43;94237.81;;;20.08;40.74
48035;BME280;33812;46.480;6.834;2022-11-13T04:13:45;94222.78;;;20.09;40.72
48035;BME280;33812;46.480;6.834;2022-11-13T04:17:49;94219.63;;;20.10;40.75
48035;BME280;33812;46.480;6.834;2022-11-13T04:21:51;94211.25;;;19.90;40.83
48035;BME280;33812;46.480;6.834;2022-11-13T04:25:55;94201.50;;;20.09;40.87
48035;BME280;33812;46.480;6.834;2022-11-13T04:29:57;94201.09;;;20.11;40.65
48035;BME280;33812;46.480;6.834;2022-11-13T04:34:01;94189.56;;;19.92;40.52
48035;BME280;33812;46.480;6.834;2022-11-13T04:38:02;94188.88;;;20.12;40.87
48035;BME280;33812;46.480;6.834;2022-11-13T04:42:05;94175.06;;;20.12;40.69
48035;BME280;33812;46.480;6.834;2022-11-13T04:46:24;94183.28;;;20.15;40.32
48035;BME280;33812;46.480;6.834;2022-11-13T04:50:27;94180.91;;;20.14;40.53
48035;BME280;33812;46.480;6.834;2022-11-13T04:54:29;94178.59;;;20.12;40.78
48035;BME280;33812;46.480;6.834;2022-11-13T04:58:31;94189.69;;;20.09;40.86
48035;BME280;33812;46.480;6.834;2022-11-13T05:02:33;94181.75;;;20.11;40.64
48035;BME280;33812;46.480;6.834;2022-11-13T05:06:37;94176.31;;;20.07;40.92
48035;BME280;33812;46.480;6.834;2022-11-13T05:10:39;94178.59;;;20.12;40.90
48035;BME280;33812;46.480;6.834;2022-11-13T05:14:41;94178.59;;;20.12;40.44
48035;BME280;33812;46.480;6.834;2022-11-13T05:18:43;94174.63;;;20.13;40.54
48035;BME280;33812;46.480;6.834;2022-11-13T05:22:47;94179.66;;;20.19;40.70
48035;BME280;33812;46.480;6.834;2022-11-13T05:26:50;94180.16;;;20.13;40.71
48035;BME280;33812;46.480;6.834;2022-11-13T05:31:01;94169.13;;;20.13;40.32
48035;BME280;33812;46.480;6.834;2022-11-13T05:35:04;94171.09;;;20.13;40.60
48035;BME280;33812;46.480;6.834;2022-11-13T05:39:07;94162.31;;;20.18;40.34
48035;BME280;33812;46.480;6.834;2022-11-13T05:43:09;94145.78;;;20.18;40.42
48035;BME280;33812;46.480;6.834;2022-11-13T05:47:11;94140.25;;;20.18;40.52
48035;BME280;33812;46.480;6.834;2022-11-13T05:51:15;94138.41;;;20.11;40.48
48035;BME280;33812;46.480;6.834;2022-11-13T05:55:19;94146.25;;;20.13;40.79
48035;BME280;33812;46.480;6.834;2022-11-13T05:59:21;94136.44;;;20.12;40.60
48035;BME280;33812;46.480;6.834;2022-11-13T06:03:24;94140.75;;;20.13;40.68
48035;BME280;33812;46.480;6.834;2022-11-13T06:07:26;94135.22;;;20.13;40.75
48035;BME280;33812;46.480;6.834;2022-11-13T06:11:30;94133.75;;;20.08;40.56
48035;BME280;33812;46.480;6.834;2022-11-13T06:15:31;94141.59;;;20.10;40.88
48035;BME280;33812;46.480;6.834;2022-11-13T06:19:33;94135.72;;;20.08;40.70
48035;BME280;33812;46.480;6.834;2022-11-13T06:23:36;94130.00;;;20.19;40.68
48035;BME280;33812;46.480;6.834;2022-11-13T06:27:40;94138.56;;;20.00;40.60
48035;BME280;33812;46.480;6.834;2022-11-13T06:31:41;94132.28;;;20.00;40.59
48035;BME280;33812;46.480;6.834;2022-11-13T06:35:43;94129.59;;;19.96;40.46
48035;BME280;33812;46.480;6.834;2022-11-13T06:39:45;94132.84;;;19.91;40.17
48035;BME280;33812;46.480;6.834;2022-11-13T06:43:50;94124.81;;;19.97;40.82
48035;BME280;33812;46.480;6.834;2022-11-13T06:47:54;94112.97;;;20.00;41.33
48035;BME280;33812;46.480;6.834;2022-11-13T06:51:56;94117.19;;;20.28;41.08
48035;BME280;33812;46.480;6.834;2022-11-13T06:55:59;94111.25;;;20.10;42.21
48035;BME280;33812;46.480;6.834;2022-11-13T07:00:04;94109.78;;;20.01;41.16
48035;BME280;33812;46.480;6.834;2022-11-13T07:04:10;94113.53;;;19.91;41.87
48035;BME280;33812;46.480;6.834;2022-11-13T07:08:14;94107.75;;;20.05;41.95
48035;BME280;33812;46.480;6.834;2022-11-13T07:12:16;94101.81;;;19.83;42.03
48035;BME280;33812;46.480;6.834;2022-11-13T07:16:19;94106.69;;;19.75;41.93
48035;BME280;33812;46.480;6.834;2022-11-13T07:20:20;94104.06;;;19.68;42.20
48035;BME280;33812;46.480;6.834;2022-11-13T07:24:22;94107.63;;;19.65;42.14
48035;BME280;33812;46.480;6.834;2022-11-13T07:28:24;94104.34;;;19.74;42.00
48035;BME280;33812;46.480;6.834;2022-11-13T07:32:29;94104.66;;;19.79;41.83
48035;BME280;33812;46.480;6.834;2022-11-13T07:36:30;94102.34;;;19.98;41.91
48035;BME280;33812;46.480;6.834;2022-11-13T07:40:32;94109.84;;;19.98;41.64
48035;BME280;33812;46.480;6.834;2022-11-13T07:44:34;94092.56;;;19.73;42.19
48035;BME280;33812;46.480;6.834;2022-11-13T07:48:37;94104.22;;;19.81;42.58
48035;BME280;33812;46.480;6.834;2022-11-13T07:52:39;94106.50;;;19.86;42.06
48035;BME280;33812;46.480;6.834;2022-11-13T07:56:40;94096.13;;;19.94;41.80
48035;BME280;33812;46.480;6.834;2022-11-13T08:00:42;94101.47;;;19.81;42.34
48035;BME280;33812;46.480;6.834;2022-11-13T08:04:49;94093.00;;;19.92;41.92
48035;BME280;33812;46.480;6.834;2022-11-13T08:08:52;94087.34;;;19.99;41.65
48035;BME280;33812;46.480;6.834;2022-11-13T08:12:58;94085.38;;;20.00;41.31
48035;BME280;33812;46.480;6.834;2022-11-13T08:17:01;94082.44;;;20.11;41.31
48035;BME280;33812;46.480;6.834;2022-11-13T08:21:04;94087.00;;;19.97;42.19
48035;BME280;33812;46.480;6.834;2022-11-13T08:25:07;94080.84;;;19.65;42.19
48035;BME280;33812;46.480;6.834;2022-11-13T08:29:08;94082.28;;;19.74;42.37
48035;BME280;33812;46.480;6.834;2022-11-13T08:33:10;94079.66;;;19.66;42.87
48035;BME280;33812;46.480;6.834;2022-11-13T08:37:13;94063.94;;;19.87;42.07
48035;BME280;33812;46.480;6.834;2022-11-13T08:41:15;94064.00;;;19.84;42.96
48035;BME280;33812;46.480;6.834;2022-11-13T08:45:17;94058.25;;;20.19;42.96
48035;BME280;33812;46.480;6.834;2022-11-13T08:49:20;94049.31;;;20.11;42.19
48035;BME280;33812;46.480;6.834;2022-11-13T08:53:24;94040.94;;;19.94;42.48
48035;BME280;33812;46.480;6.834;2022-11-13T08:57:26;94039.00;;;20.15;42.28
48035;BME280;33812;46.480;6.834;2022-11-13T09:01:28;94033.91;;;20.13;42.22
48035;BME280;33812;46.480;6.834;2022-11-13T09:05:29;94037.19;;;19.84;41.79
48035;BME280;33812;46.480;6.834;2022-11-13T09:09:32;94041.44;;;19.89;42.37
48035;BME280;33812;46.480;6.834;2022-11-13T09:13:35;94034.66;;;19.93;42.56
48035;BME280;33812;46.480;6.834;2022-11-13T09:17:36;94031.88;;;19.73;42.98
48035;BME280;33812;46.480;6.834;2022-11-13T09:21:38;94035.78;;;19.96;42.35
48035;BME280;33812;46.480;6.834;2022-11-13T09:25:42;94031.22;;;20.10;42.88
48035;BME280;33812;46.480;6.834;2022-11-13T09:29:43;94042.53;;;20.15;42.56
48035;BME280;33812;46.480;6.834;2022-11-13T09:33:45;94040.81;;;20.01;42.56
48035;BME280;33812;46.480;6.834;2022-11-13T09:37:50;94033.19;;;20.29;42.84
48035;BME280;33812;46.480;6.834;2022-11-13T09:41:56;94038.94;;;20.19;42.91
48035;BME280;33812;46.480;6.834;2022-11-13T09:46:02;94032.41;;;20.29;42.57
48035;BME280;33812;46.480;6.834;2022-11-13T09:54:18;94019.91;;;20.24;42.45
48035;BME280;33812;46.480;6.834;2022-11-13T09:58:26;94008.91;;;20.41;42.38
48035;BME280;33812;46.480;6.834;2022-11-13T10:02:42;94013.47;;;20.48;41.98
48035;BME280;33812;46.480;6.834;2022-11-13T10:06:57;94009.13;;;20.67;41.88
48035;BME280;33812;46.480;6.834;2022-11-13T10:11:06;93995.94;;;20.75;41.43
48035;BME280;33812;46.480;6.834;2022-11-13T10:15:11;94001.72;;;20.81;41.46
48035;BME280;33812;46.480;6.834;2022-11-13T10:19:18;93991.53;;;20.61;41.28
48035;BME280;33812;46.480;6.834;2022-11-13T10:23:26;93993.41;;;20.64;41.50
48035;BME280;33812;46.480;6.834;2022-11-13T10:27:29;93990.13;;;20.69;41.33
48035;BME280;33812;46.480;6.834;2022-11-13T10:31:42;93991.16;;;20.59;41.03
48035;BME280;33812;46.480;6.834;2022-11-13T10:35:49;93978.03;;;20.63;41.52
48035;BME280;33812;46.480;6.834;2022-11-13T10:39:52;93974.44;;;20.66;40.95
48035;BME280;33812;46.480;6.834;2022-11-13T10:44:01;93972.44;;;20.66;41.39
48035;BME280;33812;46.480;6.834;2022-11-13T10:48:19;93965.13;;;20.76;40.64
48035;BME280;33812;46.480;6.834;2022-11-13T10:52:23;93962.88;;;20.88;40.65
48035;BME280;33812;46.480;6.834;2022-11-13T10:56:26;93960.63;;;20.83;40.66
48035;BME280;33812;46.480;6.834;2022-11-13T11:00:31;93968.47;;;20.68;40.79
48035;BME280;33812;46.480;6.834;2022-11-13T11:04:34;93991.59;;;20.74;40.56
48035;BME280;33812;46.480;6.834;2022-11-13T11:08:36;93992.16;;;20.85;40.30
48035;BME280;33812;46.480;6.834;2022-11-13T11:12:38;93983.50;;;20.83;40.07
48035;BME280;33812;46.480;6.834;2022-11-13T11:16:40;93968.03;;;20.86;40.20
48035;BME280;33812;46.480;6.834;2022-11-13T11:20:46;93962.38;;;21.10;40.44
48035;BME280;33812;46.480;6.834;2022-11-13T11:24:55;93950.72;;;21.19;40.06
48035;BME280;33812;46.480;6.834;2022-11-13T11:29:05;93952.53;;;21.25;39.56
48035;BME280;33812;46.480;6.834;2022-11-13T11:33:14;93940.59;;;21.29;39.21
48035;BME280;33812;46.480;6.834;2022-11-13T11:37:20;93947.38;;;21.41;39.52
48035;BME280;33812;46.480;6.834;2022-11-13T11:41:27;93945.94;;;21.36;39.50
48035;BME280;33812;46.480;6.834;2022-11-13T11:45:34;93942.28;;;21.39;40.00
48035;BME280;33812;46.480;6.834;2022-11-13T11:49:37;93917.75;;;21.41;40.11
48035;BME280;33812;46.480;6.834;2022-11-13T11:53:49;93904.22;;;21.30;39.32
48035;BME280;33812;46.480;6.834;2022-11-13T11:57:58;93883.31;;;21.29;39.52
48035;BME280;33812;46.480;6.834;2022-11-13T12:02:45;93900.09;;;21.52;39.36
48035;BME280;33812;46.480;6.834;2022-11-13T12:07:00;93900.97;;;21.48;39.45
48035;BME280;33812;46.480;6.834;2022-11-13T12:11:15;93902.66;;;21.59;39.57
48035;BME280;33812;46.480;6.834;2022-11-13T12:15:24;93901.25;;;21.67;39.70
48035;BME280;33812;46.480;6.834;2022-11-13T12:19:33;93899.72;;;21.66;39.19
48035;BME280;33812;46.480;6.834;2022-11-13T12:23:54;93901.50;;;21.73;39.18
48035;BME280;33812;46.480;6.834;2022-11-13T12:28:09;93883.66;;;21.74;38.90
48035;BME280;33812;46.480;6.834;2022-11-13T12:32:22;93867.50;;;21.72;38.64
48035;BME280;33812;46.480;6.834;2022-11-13T12:36:26;93861.09;;;21.76;39.50
48035;BME280;33812;46.480;6.834;2022-11-13T12:40:35;93867.84;;;21.74;39.36
48035;BME280;33812;46.480;6.834;2022-11-13T12:44:48;93878.41;;;21.80;40.46
48035;BME280;33812;46.480;6.834;2022-11-13T12:48:52;93884.28;;;21.82;40.15
48035;BME280;33812;46.480;6.834;2022-11-13T12:52:59;93866.78;;;21.85;40.18
48035;BME280;33812;46.480;6.834;2022-11-13T12:57:17;93859.69;;;21.84;39.29
48035;BME280;33812;46.480;6.834;2022-11-13T13:01:21;93866.13;;;21.81;39.14
48035;BME280;33812;46.480;6.834;2022-11-13T13:05:34;93868.00;;;21.84;40.45
48035;BME280;33812;46.480;6.834;2022-11-13T13:09:48;93855.91;;;21.78;39.39
48035;BME280;33812;46.480;6.834;2022-11-13T13:14:12;93854.94;;;21.84;39.33
48035;BME280;33812;46.480;6.834;2022-11-13T13:18:27;93855.03;;;21.81;39.65
48035;BME280;33812;46.480;6.834;2022-11-13T13:22:31;93845.53;;;21.82;39.40
48035;BME280;33812;46.480;6.834;2022-11-13T13:26:44;93837.16;;;21.85;39.70
48035;BME280;33812;46.480;6.834;2022-11-13T13:30:53;93839.47;;;21.87;39.93
48035;BME280;33812;46.480;6.834;2022-11-13T13:35:04;93836.34;;;21.85;39.25
48035;BME280;33812;46.480;6.834;2022-11-13T13:39:26;93837.56;;;21.84;38.74
48035;BME280;33812;46.480;6.834;2022-11-13T13:43:42;93821.19;;;21.90;38.71
48035;BME280;33812;46.480;6.834;2022-11-13T13:47:49;93820.63;;;21.95;39.61
48035;BME280;33812;46.480;6.834;2022-11-13T13:51:54;93810.69;;;21.97;39.61
48035;BME280;33812;46.480;6.834;2022-11-13T13:55:58;93804.81;;;21.95;39.11
48035;BME280;33812;46.480;6.834;2022-11-13T14:00:00;93803.16;;;21.98;39.02
48035;BME280;33812;46.480;6.834;2022-11-13T14:04:03;93819.66;;;22.02;39.38
48035;BME280;33812;46.480;6.834;2022-11-13T14:08:16;93818.75;;;21.92;38.50
48035;BME280;33812;46.480;6.834;2022-11-13T14:12:20;93814.78;;;21.80;38.78
48035;BME280;33812;46.480;6.834;2022-11-13T14:16:22;93811.91;;;21.83;39.27
48035;BME280;33812;46.480;6.834;2022-11-13T14:20:24;93803.16;;;21.85;39.30
48035;BME280;33812;46.480;6.834;2022-11-13T14:24:30;93800.94;;;21.80;38.73
48035;BME280;33812;46.480;6.834;2022-11-13T14:28:43;93788.09;;;21.86;38.47
48035;BME280;33812;46.480;6.834;2022-11-13T14:32:45;93779.81;;;21.86;38.57
48035;BME280;33812;46.480;6.834;2022-11-13T14:36:47;93787.00;;;21.83;38.32
48035;BME280;33812;46.480;6.834;2022-11-13T14:40:51;93789.50;;;21.78;38.67
48035;BME280;33812;46.480;6.834;2022-11-13T14:44:52;93796.69;;;21.62;38.57
48035;BME280;33812;46.480;6.834;2022-11-13T14:48:55;93781.75;;;21.46;38.51
48035;BME280;33812;46.480;6.834;2022-11-13T14:52:59;93801.44;;;21.61;39.02
48035;BME280;33812;46.480;6.834;2022-11-13T14:57:11;93799.56;;;21.58;38.66
48035;BME280;33812;46.480;6.834;2022-11-13T15:01:14;93791.34;;;21.42;38.74
48035;BME280;33812;46.480;6.834;2022-11-13T15:05:16;93790.38;;;21.48;38.74
48035;BME280;33812;46.480;6.834;2022-11-13T15:09:18;93794.22;;;21.51;38.90
48035;BME280;33812;46.480;6.834;2022-11-13T15:13:21;93795.81;;;21.52;38.40
48035;BME280;33812;46.480;6.834;2022-11-13T15:17:23;93800.88;;;21.54;39.08
48035;BME280;33812;46.480;6.834;2022-11-13T15:21:25;93803.09;;;21.59;38.58
48035;BME280;33812;46.480;6.834;2022-11-13T15:25:27;93806.41;;;21.54;38.64
48035;BME280;33812;46.480;6.834;2022-11-13T15:29:30;93802.28;;;21.45;38.98
48035;BME280;33812;46.480;6.834;2022-11-13T15:33:32;93811.28;;;21.49;38.63
48035;BME280;33812;46.480;6.834;2022-11-13T15:37:34;93809.81;;;21.45;39.21
48035;BME280;33812;46.480;6.834;2022-11-13T15:41:35;93814.88;;;21.33;39.07
48035;BME280;33812;46.480;6.834;2022-11-13T15:45:38;93811.31;;;21.20;38.96
48035;BME280;33812;46.480;6.834;2022-11-13T15:49:40;93813.81;;;21.14;38.90
48035;BME280;33812;46.480;6.834;2022-11-13T15:53:43;93823.25;;;21.30;39.48
48035;BME280;33812;46.480;6.834;2022-11-13T15:57:45;93814.16;;;21.16;39.30
48035;BME280;33812;46.480;6.834;2022-11-13T16:01:48;93824.06;;;21.00;39.52
48035;BME280;33812;46.480;6.834;2022-11-13T16:05:52;93834.38;;;21.13;39.01
48035;BME280;33812;46.480;6.834;2022-11-13T16:09:53;93829.22;;;21.15;39.51
48035;BME280;33812;46.480;6.834;2022-11-13T16:13:55;93835.59;;;21.12;39.45
48035;BME280;33812;46.480;6.834;2022-11-13T16:17:59;93839.56;;;21.11;39.99
48035;BME280;33812;46.480;6.834;2022-11-13T16:22:01;93832.25;;;21.34;39.77
48035;BME280;33812;46.480;6.834;2022-11-13T16:26:03;93836.28;;;21.16;40.26
48035;BME280;33812;46.480;6.834;2022-11-13T16:30:12;93832.28;;;21.47;40.29
48035;BME280;33812;46.480;6.834;2022-11-13T16:34:16;93830.28;;;21.05;40.25
48035;BME280;33812;46.480;6.834;2022-11-13T16:38:17;93839.03;;;21.16;40.03
48035;BME280;33812;46.480;6.834;2022-11-13T16:42:19;93827.63;;;21.14;39.82
48035;BME280;33812;46.480;6.834;2022-11-13T16:46:26;93823.59;;;21.32;40.24
48035;BME280;33812;46.480;6.834;2022-11-13T16:50:32;93819.75;;;21.29;39.86
48035;BME280;33812;46.480;6.834;2022-11-13T16:54:36;93824.88;;;20.68;40.20
48035;BME280;33812;46.480;6.834;2022-11-13T16:58:37;93830.78;;;20.83;40.01
48035;BME280;33812;46.480;6.834;2022-11-13T17:02:39;93825.88;;;20.90;40.36
48035;BME280;33812;46.480;6.834;2022-11-13T17:06:42;93824.84;;;20.84;40.14
48035;BME280;33812;46.480;6.834;2022-11-13T17:10:44;93809.94;;;20.65;40.17
48035;BME280;33812;46.480;6.834;2022-11-13T17:14:46;93811.50;;;20.66;40.39
48035;BME280;33812;46.480;6.834;2022-11-13T17:18:48;93801.00;;;20.90;40.14
48035;BME280;33812;46.480;6.834;2022-11-13T17:22:53;93794.34;;;20.58;39.63
48035;BME280;33812;46.480;6.834;2022-11-13T17:26:55;93798.03;;;20.68;39.94
48035;BME280;33812;46.480;6.834;2022-11-13T17:31:00;93793.41;;;20.95;40.88
48035;BME280;33812;46.480;6.834;2022-11-13T17:35:03;93775.94;;;20.68;40.84
48035;BME280;33812;46.480;6.834;2022-11-13T17:39:06;93773.69;;;20.63;41.50
48035;BME280;33812;46.480;6.834;2022-11-13T17:43:08;93772.31;;;20.71;41.60
48035;BME280;33812;46.480;6.834;2022-11-13T17:47:10;93757.53;;;20.78;41.55
48035;BME280;33812;46.480;6.834;2022-11-13T17:51:13;93762.25;;;20.64;41.92
48035;BME280;33812;46.480;6.834;2022-11-13T17:55:23;93783.81;;;21.29;42.25
48035;BME280;33812;46.480;6.834;2022-11-13T17:59:25;93807.94;;;21.42;42.33
48035;BME280;33812;46.480;6.834;2022-11-13T18:03:27;93803.63;;;21.41;42.31
48035;BME280;33812;46.480;6.834;2022-11-13T18:07:28;93789.50;;;21.52;42.47
48035;BME280;33812;46.480;6.834;2022-11-13T18:11:31;93783.75;;;21.59;42.83
48035;BME280;33812;46.480;6.834;2022-11-13T18:15:33;93794.47;;;21.57;42.74
48035;BME280;33812;46.480;6.834;2022-11-13T18:19:36;93788.94;;;21.57;42.48
48035;BME280;33812;46.480;6.834;2022-11-13T18:23:38;93780.19;;;21.58;42.49
48035;BME280;33812;46.480;6.834;2022-11-13T18:27:41;93769.59;;;21.57;42.29
48035;BME280;33812;46.480;6.834;2022-11-13T18:31:43;93774.34;;;21.56;42.28
48035;BME280;33812;46.480;6.834;2022-11-13T18:35:45;93766.16;;;21.66;42.25
48035;BME280;33812;46.480;6.834;2022-11-13T18:39:47;93760.41;;;21.73;42.20
48035;BME280;33812;46.480;6.834;2022-11-13T18:43:51;93758.31;;;21.77;42.44
48035;BME280;33812;46.480;6.834;2022-11-13T18:47:53;93744.72;;;21.83;42.55
48035;BME280;33812;46.480;6.834;2022-11-13T18:51:55;93747.25;;;21.77;42.37
48035;BME280;33812;46.480;6.834;2022-11-13T18:55:59;93744.72;;;21.83;41.90
48035;BME280;33812;46.480;6.834;2022-11-13T19:00:03;93751.22;;;21.76;41.74
48035;BME280;33812;46.480;6.834;2022-11-13T19:04:06;93745.25;;;21.78;43.35
48035;BME280;33812;46.480;6.834;2022-11-13T19:08:16;93747.50;;;21.83;42.93
48035;BME280;33812;46.480;6.834;2022-11-13T19:12:18;93735.41;;;21.77;42.99
48035;BME280;33812;46.480;6.834;2022-11-13T19:16:24;93748.16;;;21.87;43.15
48035;BME280;33812;46.480;6.834;2022-11-13T19:20:26;93751.25;;;21.89;42.94
48035;BME280;33812;46.480;6.834;2022-11-13T19:24:28;93739.19;;;21.96;43.25
48035;BME280;33812;46.480;6.834;2022-11-13T19:28:32;93748.69;;;21.95;43.25
48035;BME280;33812;46.480;6.834;2022-11-13T19:32:35;93744.84;;;21.92;42.82
48035;BME280;33812;46.480;6.834;2022-11-13T19:36:37;93755.22;;;21.88;42.95
48035;BME280;33812;46.480;6.834;2022-11-13T19:40:42;93751.69;;;21.88;43.13
48035;BME280;33812;46.480;6.834;2022-11-13T19:44:46;93744.84;;;21.92;43.29
48035;BME280;33812;46.480;6.834;2022-11-13T19:48:51;93742.94;;;21.89;42.97
48035;BME280;33812;46.480;6.834;2022-11-13T19:52:55;93745.94;;;21.82;42.95
48035;BME280;33812;46.480;6.834;2022-11-13T19:56:57;93754.56;;;21.84;42.86
48035;BME280;33812;46.480;6.834;2022-11-13T20:01:06;93746.72;;;21.82;43.02
48035;BME280;33812;46.480;6.834;2022-11-13T20:05:10;93753.44;;;21.94;42.72
48035;BME280;33812;46.480;6.834;2022-11-13T20:09:11;93751.81;;;21.97;42.98
48035;BME280;33812;46.480;6.834;2022-11-13T20:13:15;93758.13;;;21.97;43.05
48035;BME280;33812;46.480;6.834;2022-11-13T20:17:17;93764.41;;;21.98;42.73
48035;BME280;33812;46.480;6.834;2022-11-13T20:21:24;93763.66;;;21.97;42.94
48035;BME280;33812;46.480;6.834;2022-11-13T20:25:27;93772.81;;;21.94;42.60
48035;BME280;33812;46.480;6.834;2022-11-13T20:29:31;93767.19;;;21.85;42.69
48035;BME280;33812;46.480;6.834;2022-11-13T20:33:44;93776.38;;;21.82;42.65
48035;BME280;33812;46.480;6.834;2022-11-13T20:37:48;93782.91;;;21.88;42.48
48035;BME280;33812;46.480;6.834;2022-11-13T20:41:50;93772.16;;;21.90;42.43
48035;BME280;33812;46.480;6.834;2022-11-13T20:46:00;93768.97;;;21.92;42.69
48035;BME280;33812;46.480;6.834;2022-11-13T20:50:02;93761.31;;;21.83;42.04
48035;BME280;33812;46.480;6.834;2022-11-13T20:54:06;93751.38;;;21.85;42.33
48035;BME280;33812;46.480;6.834;2022-11-13T20:58:08;93762.09;;;21.96;42.11
48035;BME280;33812;46.480;6.834;2022-11-13T21:02:12;93754.22;;;21.95;41.85
48035;BME280;33812;46.480;6.834;2022-11-13T21:06:15;93748.91;;;21.88;41.78
48035;BME280;33812;46.480;6.834;2022-11-13T21:10:18;93753.44;;;21.94;41.61
48035;BME280;33812;46.480;6.834;2022-11-13T21:14:20;93755.00;;;21.95;41.68
48035;BME280;33812;46.480;6.834;2022-11-13T21:18:23;93761.56;;;21.89;41.58
48035;BME280;33812;46.480;6.834;2022-11-13T21:22:24;93759.44;;;21.93;41.40
48035;BME280;33812;46.480;6.834;2022-11-13T21:26:28;93766.97;;;21.92;41.25
48035;BME280;33812;46.480;6.834;2022-11-13T21:30:31;93763.09;;;21.90;41.29
48035;BME280;33812;46.480;6.834;2022-11-13T21:34:34;93766.63;;;21.90;41.55
48035;BME280;33812;46.480;6.834;2022-11-13T21:38:42;93758.78;;;21.89;41.29